Data for 11/27/2017

Time Sea-Level Adjusted Pressure Absolute Pressure Temperature Relative Humidity Dew Point   
(mb) (inHg) (mb) (inHg) (C) (F) (%) (C) (F)
00:05 1007 29.74 836 24.69 14.4 57.9 29 -3.2 26.3
00:10 1007 29.74 836 24.69 14.2 57.6 29 -3.3 26.1
00:15 1007 29.74 836 24.69 14.1 57.4 29 -3.4 25.9
00:20 1007 29.74 836 24.69 14.1 57.3 29 -3.8 25.2
00:25 1007 29.74 836 24.69 14.3 57.8 29 -3.3 26
00:30 1007 29.74 836 24.69 14 57.2 30 -3.3 26
00:35 1007 29.74 836 24.69 14.2 57.5 29 -3.6 25.5
00:40 1007 29.74 836 24.69 14.2 57.5 30 -3.2 26.2
00:45 1007 29.74 836 24.69 14 57.3 29 -3.6 25.6
00:50 1007 29.74 836 24.69 14.1 57.5 29 -3.5 25.7
00:55 1007 29.74 836 24.69 14.1 57.4 29 -3.4 25.8
01:00 1007 29.74 836 24.69 14.1 57.3 29 -3.6 25.5
01:05 1007 29.74 836 24.69 14.2 57.6 30 -3.2 26.2
01:10 1007 29.74 836 24.69 14.1 57.5 30 -3.2 26.2
01:15 1007 29.74 836 24.69 14.1 57.4 30 -3.2 26.3
01:20 1007 29.74 836 24.69 14.6 58.2 31 -2.2 28
01:25 1007 29.74 836 24.69 14.3 57.7 33 -1.9 28.7
01:30 1007 29.74 836 24.69 13.9 57.1 33 -1.8 28.7
01:35 1007 29.74 836 24.69 13.7 56.7 35 -1.6 29.2
01:40 1007 29.74 836 24.69 13.4 56.1 36 -1.2 29.9
01:45 1007 29.74 836 24.69 13.2 55.7 37 -1.3 29.7
01:50 1007 29.74 836 24.69 13.2 55.7 36 -1.4 29.4
01:55 1006 29.71 836 24.69 13.1 55.5 37 -1.4 29.5
02:00 1006 29.71 836 24.69 13 55.3 37 -1.3 29.6
02:05 1006 29.71 836 24.69 12.9 55.2 37 -1.5 29.3
02:10 1006 29.71 836 24.69 12.9 55.2 35 -2.1 28.3
02:15 1006 29.71 836 24.69 13.2 55.8 32 -2.9 26.7
02:20 1006 29.71 835 24.66 13.7 56.6 33 -2.4 27.7
02:25 1006 29.71 836 24.69 13.6 56.4 33 -2.2 28.1
02:30 1006 29.71 836 24.69 13.2 55.8 36 -1.4 29.5
02:35 1006 29.71 836 24.69 13.2 55.7 37 -1.1 30.1
02:40 1006 29.71 836 24.69 13 55.4 38 -1 30.2
02:45 1006 29.71 835 24.66 13.2 55.7 38 -0.9 30.4
02:50 1006 29.71 835 24.66 13.2 55.7 38 -0.7 30.8
02:55 1006 29.71 835 24.66 13.1 55.5 39 -0.5 31.2
03:00 1006 29.71 835 24.66 12.9 55.3 40 -0.2 31.6
03:05 1006 29.71 835 24.66 12.8 55 41 -0.1 31.7
03:10 1006 29.71 835 24.66 12.7 54.9 40 -0.3 31.4
03:15 1006 29.71 835 24.66 12.7 54.8 42 0.1 32.2
03:20 1006 29.71 835 24.66 12.4 54.3 43 0.2 32.4
03:25 1006 29.71 835 24.66 12.3 54.1 43 0 32.1
03:30 1006 29.71 835 24.66 12.3 54.1 44 0.3 32.5
03:35 1006 29.71 835 24.66 12.1 53.8 44 0.4 32.7
03:40 1006 29.71 835 24.66 11.8 53.2 44 0.1 32.1
03:45 1006 29.71 835 24.66 11.4 52.5 45 -0 32
03:50 1006 29.71 835 24.66 11.1 52 46 0 32
03:55 1006 29.71 835 24.66 11.1 52 46 -0 31.9
04:00 1006 29.71 835 24.66 11.2 52.1 46 0.1 32.3
04:05 1006 29.71 835 24.66 11.1 51.9 49 0.7 33.3
04:10 1006 29.71 835 24.66 10.7 51.3 51 1 33.8
04:15 1006 29.71 835 24.66 10.5 50.9 53 1.3 34.4
04:20 1006 29.71 835 24.66 10.3 50.5 54 1.4 34.6
04:25 1006 29.71 835 24.66 10.3 50.5 54 1.3 34.3
04:30 1006 29.71 835 24.66 10.4 50.6 56 2 35.7
04:35 1007 29.74 836 24.69 10.1 50.3 57 2.1 35.8
04:40 1007 29.74 836 24.69 9.9 49.8 61 2.8 37
04:45 1006 29.71 836 24.69 9.4 49 64 3 37.4
04:50 1006 29.71 836 24.69 8.9 48.1 66 2.9 37.3
04:55 1006 29.71 836 24.69 8.6 47.5 66 2.7 36.8
05:00 1007 29.74 836 24.69 8.4 47.1 66 2.5 36.6
05:05 1007 29.74 836 24.69 8.1 46.6 70 3 37.5
05:10 1007 29.74 836 24.69 7.7 45.8 71 2.9 37.2
05:15 1007 29.74 836 24.69 7.6 45.7 71 2.6 36.8
05:20 1007 29.74 836 24.69 7.6 45.6 72 2.8 37.1
05:25 1007 29.74 836 24.69 7.3 45.2 74 3 37.4
05:30 1007 29.74 836 24.69 7.1 44.8 75 2.9 37.3
05:35 1007 29.74 836 24.69 6.9 44.5 76 3 37.4
05:40 1006 29.71 836 24.69 6.9 44.4 75 2.8 37
05:45 1006 29.71 836 24.69 6.7 44.1 75 2.6 36.6
05:50 1006 29.71 835 24.66 6.7 44 75 2.6 36.6
05:55 1006 29.71 835 24.66 6.8 44.2 72 2 35.6
06:00 1006 29.71 835 24.66 7 44.6 72 2.4 36.2
06:05 1006 29.71 835 24.66 6.9 44.4 71 2 35.7
06:10 1006 29.71 835 24.66 7.1 44.7 69 1.8 35.3
06:15 1006 29.71 835 24.66 7.2 44.9 69 2 35.5
06:20 1006 29.71 835 24.66 7.2 44.9 70 2.2 35.9
06:25 1007 29.74 836 24.69 7 44.6 75 2.8 37.1
06:30 1007 29.74 836 24.69 6.8 44.2 75 2.7 36.9
06:35 1007 29.74 836 24.69 6.8 44.2 76 2.9 37.2
06:40 1007 29.74 836 24.69 6.2 43.1 76 2.3 36.1
06:45 1007 29.74 836 24.69 5.4 41.7 77 1.7 35.1
06:50 1007 29.74 836 24.69 4.8 40.7 81 1.8 35.2
06:55 1007 29.74 837 24.72 4.4 39.9 83 1.7 35.1
07:00 1008 29.77 837 24.72 3.9 39 85 1.5 34.7
07:05 1008 29.77 837 24.72 3.5 38.2 86 1.3 34.4
07:10 1008 29.77 837 24.72 3.3 38 84 0.9 33.7
07:15 1008 29.77 837 24.72 3.4 38.1 84 0.9 33.6
07:20 1008 29.77 837 24.72 3.4 38 81 0.5 32.8
07:25 1009 29.8 838 24.75 3.4 38.1 81 0.4 32.7
07:30 1009 29.8 838 24.75 3.3 37.9 81 0.4 32.7
07:35 1009 29.8 838 24.75 3 37.4 83 0.3 32.6
07:40 1009 29.8 838 24.75 2.8 37 84 0.4 32.7
07:45 1009 29.8 839 24.78 2.5 36.5 85 0.2 32.4
07:50 1010 29.83 839 24.78 2.2 36 86 0.1 32.2
07:55 1010 29.83 839 24.78 1.8 35.2 87 -0.1 31.7
08:00 1010 29.83 839 24.78 1.4 34.5 88 -0.4 31.2
08:05 1010 29.83 839 24.78 1.1 34 89 -0.5 31.1
08:10 1010 29.83 839 24.78 0.9 33.6 90 -0.6 31
08:15 1010 29.83 839 24.78 0.6 33 91 -0.7 30.7
08:20 1010 29.83 839 24.78 0.4 32.7 92 -0.8 30.6
08:25 1010 29.83 839 24.78 0.3 32.5 92 -0.8 30.6
08:30 1010 29.83 839 24.78 0.3 32.5 93 -0.8 30.6
08:35 1010 29.83 839 24.78 0.2 32.4 93 -0.8 30.5
08:40 1010 29.83 839 24.78 0.2 32.3 93 -0.8 30.5
08:45 1010 29.83 839 24.78 0.2 32.3 93 -0.8 30.6
08:50 1010 29.83 839 24.78 0.3 32.5 93 -0.7 30.8
08:55 1010 29.83 839 24.78 0.4 32.8 93 -0.5 31.1
09:00 1010 29.83 839 24.78 0.6 33.1 93 -0.4 31.3
09:05 1010 29.83 839 24.78 0.7 33.3 93 -0.3 31.4
09:10 1010 29.83 839 24.78 0.8 33.5 92 -0.3 31.5
09:15 1010 29.83 839 24.78 0.9 33.7 92 -0.3 31.5
09:20 1010 29.83 839 24.78 1 33.8 92 -0.2 31.6
09:25 1010 29.83 839 24.78 1.1 33.9 91 -0.3 31.5
09:30 1010 29.83 839 24.78 1 33.8 91 -0.4 31.4
09:35 1010 29.83 839 24.78 1 33.7 91 -0.4 31.3
09:40 1010 29.83 839 24.78 0.9 33.7 91 -0.3 31.4
09:45 1010 29.83 839 24.78 1 33.8 91 -0.2 31.6
09:50 1010 29.83 839 24.78 1.1 34 91 -0.1 31.8
09:55 1010 29.83 839 24.78 1.2 34.1 91 -0.1 31.8
10:00 1010 29.83 839 24.78 1.1 34 91 -0.2 31.7
10:05 1010 29.83 839 24.78 1.2 34.2 91 -0.1 31.8
10:10 1010 29.83 839 24.78 1.3 34.3 91 -0.1 31.9
10:15 1010 29.83 839 24.78 1.5 34.6 90 0.1 32.1
10:20 1010 29.83 840 24.81 1.6 34.9 90 0.2 32.3
10:25 1010 29.83 840 24.81 1.8 35.3 90 0.4 32.6
10:30 1010 29.83 840 24.81 2 35.6 86 -0.1 31.9
10:35 1011 29.85 840 24.81 2.3 36.2 84 -0.2 31.7
10:40 1011 29.85 840 24.81 2.5 36.6 83 -0 31.9
10:45 1011 29.85 840 24.81 2.6 36.7 81 -0.4 31.3
10:50 1011 29.85 840 24.81 2.6 36.8 81 -0.3 31.5
10:55 1011 29.85 840 24.81 2.6 36.7 81 -0.3 31.5
11:00 1011 29.85 840 24.81 2.6 36.7 82 -0.2 31.6
11:05 1011 29.85 840 24.81 2.6 36.8 82 -0.1 31.7
11:10 1011 29.85 840 24.81 2.6 36.7 81 -0.4 31.3
11:15 1011 29.85 840 24.81 2.6 36.8 83 0 32
11:20 1011 29.85 840 24.81 2.7 36.8 85 0.4 32.7
11:25 1011 29.85 840 24.81 2.7 36.8 85 0.4 32.7
11:30 1011 29.85 840 24.81 2.7 36.8 84 0.2 32.4
11:35 1011 29.85 840 24.81 2.6 36.8 82 -0.2 31.7
11:40 1011 29.85 840 24.81 2.7 36.8 82 -0.1 31.8
11:45 1011 29.85 840 24.81 2.8 37 81 -0.2 31.6
11:50 1011 29.85 841 24.83 3 37.3 79 -0.4 31.4
11:55 1011 29.85 840 24.81 3 37.4 79 -0.2 31.6
12:00 1011 29.85 840 24.81 3 37.5 79 -0.2 31.6
12:05 1011 29.85 841 24.83 3.2 37.7 79 -0.1 31.9
12:10 1011 29.85 841 24.83 3.3 38 80 0.2 32.3
12:15 1011 29.85 841 24.83 3.3 38 80 0.2 32.4
12:20 1012 29.88 841 24.83 3.2 37.8 82 0.4 32.7
12:25 1012 29.88 841 24.83 3.4 38.2 82 0.7 33.3
12:30 1012 29.88 841 24.83 3.5 38.4 81 0.6 33.1
12:35 1012 29.88 841 24.83 3.6 38.4 80 0.4 32.7
12:40 1012 29.88 841 24.83 3.3 38 79 0.1 32.2
12:45 1012 29.88 841 24.83 3.4 38.2 79 0.2 32.3
12:50 1012 29.88 841 24.83 3.7 38.7 80 0.5 32.9
12:55 1012 29.88 841 24.83 3.7 38.6 78 0.2 32.4
13:00 1012 29.88 841 24.83 3.6 38.4 78 0.2 32.3
13:05 1012 29.88 841 24.83 3.8 38.8 78 0.3 32.5
13:10 1012 29.88 841 24.83 3.8 38.8 77 0.1 32.3
13:15 1012 29.88 841 24.83 3.7 38.6 77 -0 32
13:20 1012 29.88 841 24.83 3.8 38.8 78 0.2 32.4
13:25 1012 29.88 841 24.83 4.1 39.5 77 0.4 32.7
13:30 1012 29.88 841 24.83 4.4 39.9 75 0.4 32.8
13:35 1012 29.88 841 24.83 4.6 40.3 71 -0.3 31.5
13:40 1012 29.88 841 24.83 4.6 40.3 70 -0.4 31.3
13:45 1012 29.88 841 24.83 4.5 40.2 71 -0.2 31.6
13:50 1012 29.88 841 24.83 4.3 39.8 69 -0.8 30.6
13:55 1012 29.88 841 24.83 4.6 40.3 64 -1.5 29.2
14:00 1012 29.88 841 24.83 4.9 40.7 64 -1.4 29.5
14:05 1012 29.88 841 24.83 5 41 61 -1.8 28.8
14:10 1012 29.88 841 24.83 5.1 41.2 62 -1.5 29.3
14:15 1012 29.88 841 24.83 5.2 41.4 60 -2 28.4
14:20 1012 29.88 841 24.83 5.2 41.4 59 -2.2 28.1
14:25 1012 29.88 841 24.83 5.2 41.4 58 -2.4 27.7
14:30 1012 29.88 841 24.83 5.1 41.2 57 -2.6 27.4
14:35 1012 29.88 841 24.83 5 41.1 57 -2.8 26.9
14:40 1012 29.88 841 24.83 5.1 41.1 52 -4 24.9
14:45 1012 29.88 841 24.83 5 41 51 -4.2 24.4
14:50 1012 29.88 841 24.83 5 41 53 -3.9 24.9
14:55 1012 29.88 841 24.83 5 41 54 -3.5 25.7
15:00 1012 29.88 841 24.83 4.9 40.9 55 -3.4 25.9
15:05 1012 29.88 841 24.83 5.1 41.2 52 -4 24.9
15:10 1012 29.88 841 24.83 5.6 42 49 -4.3 24.2
15:15 1012 29.88 841 24.83 5.2 41.4 55 -3.2 26.3
15:20 1012 29.88 841 24.83 4.6 40.2 60 -2.5 27.5
15:25 1012 29.88 841 24.83 4.3 39.8 58 -3.3 26.1
15:30 1012 29.88 842 24.86 4.3 39.8 54 -4.1 24.7
15:35 1012 29.88 842 24.86 4 39.1 56 -4.1 24.6
15:40 1013 29.91 842 24.86 3.8 38.9 54 -4.6 23.6
15:45 1013 29.91 842 24.86 4.1 39.4 44 -7.1 19.2
15:50 1013 29.91 842 24.86 4.3 39.8 43 -7.3 18.9
15:55 1013 29.91 842 24.86 4.4 39.9 39 -8.2 17.2
16:00 1013 29.91 842 24.86 4.4 39.8 39 -8.5 16.6
16:05 1013 29.91 842 24.86 4.6 40.3 36 -9.1 15.6
16:10 1013 29.91 842 24.86 4.4 39.9 43 -7.1 19.2
16:15 1013 29.91 842 24.86 3.9 39.1 40 -8.6 16.5
16:20 1013 29.91 842 24.86 3.8 38.8 40 -8.5 16.6
16:25 1013 29.91 842 24.86 3.6 38.5 43 -7.9 17.9
16:30 1013 29.91 843 24.89 3.3 38 45 -7.5 18.6
16:35 1013 29.91 843 24.89 3 37.4 47 -7.2 19.1
16:40 1013 29.91 843 24.89 2.8 37 47 -7.3 18.8
16:45 1014 29.94 843 24.89 2.7 36.8 47 -7.5 18.6
16:50 1014 29.94 843 24.89 2.6 36.7 50 -6.8 19.7
16:55 1014 29.94 843 24.89 2.1 35.8 53 -6.5 20.3
17:00 1014 29.94 843 24.89 1.8 35.2 52 -7 19.4
17:05 1014 29.94 843 24.89 1.8 35.2 52 -7.1 19.2
17:10 1014 29.94 843 24.89 1.6 35 53 -7 19.4
17:15 1014 29.94 843 24.89 1.6 34.8 50 -7.8 18
17:20 1014 29.94 843 24.89 1.3 34.4 55 -6.8 19.7
17:25 1014 29.94 844 24.92 1.1 34 54 -7.2 19.1
17:30 1014 29.94 844 24.92 1.2 34.2 50 -8.1 17.3
17:35 1015 29.97 844 24.92 1.4 34.6 50 -7.9 17.8
17:40 1015 29.97 844 24.92 1.4 34.5 49 -8.2 17.3
17:45 1015 29.97 844 24.92 1.3 34.4 50 -7.9 17.8
17:50 1015 29.97 844 24.92 1.3 34.3 49 -8.2 17.2
17:55 1015 29.97 844 24.92 1.2 34.1 46 -9.3 15.3
18:00 1015 29.97 844 24.92 1.4 34.4 42 -10.1 13.8
18:05 1015 29.97 844 24.92 1.6 34.8 39 -10.9 12.4
18:10 1015 29.97 844 24.92 1.8 35.2 39 -10.6 12.9
18:15 1015 29.97 844 24.92 1.7 35.1 41 -10.2 13.6
18:20 1015 29.97 844 24.92 1.5 34.7 42 -10 14
18:25 1015 29.97 844 24.92 1.4 34.5 43 -10 14
18:30 1015 29.97 845 24.95 1.3 34.3 43 -10 14
18:35 1015 29.97 845 24.95 1.2 34.1 43 -10.2 13.7
18:40 1016 30 845 24.95 1.1 33.9 43 -10.3 13.5
18:45 1016 30 845 24.95 1 33.8 42 -10.4 13.2
18:50 1016 30 845 24.95 0.9 33.5 42 -10.5 13.1
18:55 1016 30 845 24.95 0.8 33.4 43 -10.4 13.2
19:00 1016 30 845 24.95 0.7 33.2 44 -10.1 13.8
19:05 1016 30 845 24.95 0.6 33.1 43 -10.6 12.8
19:10 1016 30 845 24.95 0.6 33.1 43 -10.6 13
19:15 1016 30 845 24.95 0.4 32.8 46 -10 14.1
19:20 1016 30 845 24.95 0.1 32.3 47 -10 14.1
19:25 1016 30 845 24.95 0 32.1 47 -10 14.1
19:30 1016 30 845 24.95 -0 31.9 47 -10 14
19:35 1016 30 845 24.95 -0.2 31.7 48 -9.8 14.4
19:40 1016 30 846 24.98 -0.3 31.5 49 -9.7 14.6
19:45 1016 30 846 24.98 -0.4 31.3 49 -9.8 14.4
19:50 1017 30.03 846 24.98 -0.4 31.3 49 -9.8 14.3
19:55 1017 30.03 846 24.98 -0.5 31.1 50 -9.8 14.4
20:00 1017 30.03 846 24.98 -0.5 31.1 50 -9.7 14.5
20:05 1017 30.03 846 24.98 -0.7 30.8 51 -9.5 14.9
20:10 1017 30.03 846 24.98 -0.8 30.5 52 -9.5 14.9
20:15 1017 30.03 846 24.98 -0.8 30.6 52 -9.5 14.9
20:20 1017 30.03 846 24.98 -0.6 30.9 52 -9.4 15.1
20:25 1017 30.03 846 24.98 -0.6 31 51 -9.6 14.8
20:30 1017 30.03 846 24.98 -0.5 31.2 51 -9.4 15.1
20:35 1017 30.03 846 24.98 -0.4 31.3 51 -9.4 15
20:40 1017 30.03 846 24.98 -0.3 31.4 51 -9.3 15.2
20:45 1017 30.03 846 24.98 -0.1 31.9 46 -10.4 13.2
20:50 1017 30.03 846 24.98 -0.1 31.8 48 -9.9 14.1
20:55 1017 30.03 846 24.98 -0.5 31.1 52 -9.2 15.4
21:00 1017 30.03 847 25.01 -0.7 30.8 51 -9.6 14.7
21:05 1018 30.06 847 25.01 -0.5 31.1 50 -9.8 14.4
21:10 1018 30.06 847 25.01 -0.5 31.2 50 -9.5 14.8
21:15 1018 30.06 847 25.01 -0.5 31.1 52 -9.2 15.4
21:20 1018 30.06 847 25.01 -0.7 30.8 50 -9.7 14.5
21:25 1018 30.06 847 25.01 -0.6 31 50 -9.8 14.4
21:30 1018 30.06 847 25.01 -0.6 30.9 49 -9.9 14.1
21:35 1018 30.06 847 25.01 -0.6 30.9 51 -9.5 14.9
21:40 1018 30.06 847 25.01 -0.5 31.1 50 -9.8 14.4
21:45 1018 30.06 847 25.01 -0.5 31.2 50 -9.7 14.5
21:50 1018 30.06 848 25.04 -0.5 31.2 51 -9.3 15.2
21:55 1018 30.06 848 25.04 -0.7 30.8 52 -9.3 15.3
22:00 1018 30.06 848 25.04 -0.9 30.4 51 -9.7 14.6
22:05 1019 30.09 848 25.04 -0.9 30.4 51 -9.8 14.4
22:10 1019 30.09 848 25.04 -0.8 30.6 51 -9.7 14.6
22:15 1019 30.09 848 25.04 -0.8 30.5 51 -9.8 14.3
22:20 1019 30.09 848 25.04 -1.1 30 60 -7.8 17.9
22:25 1019 30.09 848 25.04 -1.4 29.6 61 -8 17.6
22:30 1019 30.09 848 25.04 -1.4 29.5 61 -8 17.6
22:35 1019 30.09 848 25.04 -1.5 29.4 63 -7.6 18.3
22:40 1019 30.09 848 25.04 -1.7 28.9 66 -7.4 18.8
22:45 1019 30.09 848 25.04 -2 28.4 66 -7.6 18.3
22:50 1019 30.09 848 25.04 -2.1 28.2 66 -7.6 18.2
22:55 1019 30.09 848 25.04 -2.2 28.1 63 -8.2 17.2
23:00 1019 30.09 848 25.04 -2 28.4 61 -8.5 16.7
23:05 1019 30.09 848 25.04 -2 28.4 62 -8.4 16.8
23:10 1019 30.09 849 25.07 -2.1 28.2 59 -9 15.8
23:15 1019 30.09 849 25.07 -2.1 28.3 57 -9.4 15.1
23:20 1019 30.09 849 25.07 -2 28.4 55 -9.9 14.2
23:25 1019 30.09 849 25.07 -1.8 28.8 52 -10.3 13.4
23:30 1019 30.09 849 25.07 -1.6 29.1 54 -9.6 14.7
23:35 1020 30.12 849 25.07 -1.7 28.9 54 -9.8 14.3
23:40 1020 30.12 849 25.07 -1.7 28.9 54 -9.9 14.2
23:45 1020 30.12 849 25.07 -1.6 29.1 52 -10.4 13.3
23:50 1020 30.12 849 25.07 -1.5 29.3 51 -10.3 13.5
23:55 1020 30.12 849 25.07 -1.4 29.5 50 -10.4 13.3
24:00 1020 30.12 849 25.07 -1.4 29.5 51 -10.3 13.5